ID Time Temp Humidity Light PM2.5 PM10 Voltage Extra Firmware Position Fcnt TTN version Gateways Distance RSSI LSNR Radiosettings
2026-05-09 08:36:40 14.6875°C 80.875% 4.22V / 3.41V v255 No position 9797 ttn.v3 - -77 12.5 868.1MHz, SF9BW125, 4/5CR
- -120 -9 868.1MHz, SF9BW125, 4/5CR
- -119 -10.5 868.1MHz, SF9BW125, 4/5CR
2026-05-09 08:20:31 14.625°C 80.8125% 4.22V / 3.41V v255 No position 9796 ttn.v3 - -78 12.75 867.9MHz, SF9BW125, 4/5CR
- -120 -7.25 867.9MHz, SF9BW125, 4/5CR
- -120 -13.5 867.9MHz, SF9BW125, 4/5CR
2026-05-09 08:04:22 14.625°C 80.6875% 4.22V / 3.41V v255 No position 9795 ttn.v3 - -77 8.75 868.5MHz, SF9BW125, 4/5CR
2026-05-09 07:48:13 14.625°C 80.6875% 4.22V / 3.41V v255 No position 9794 ttn.v3 - -77 13.25 868.3MHz, SF9BW125, 4/5CR
2026-05-09 07:32:04 14.625°C 80.625% 4.22V / 3.41V v255 No position 9793 ttn.v3 - -75 12 868.1MHz, SF9BW125, 4/5CR
- -121 -9.5 868.1MHz, SF9BW125, 4/5CR
2026-05-09 07:18:06 14.5625°C 80.75% 4.22V / 3.41V 608310488 v255 No position 9792 ttn.v3 - -75 9.25 867.7MHz, SF12BW125, 4/5CR
- -119 -7.25 867.7MHz, SF12BW125, 4/5CR
- -121 -12.25 867.7MHz, SF12BW125, 4/5CR
- -120 -12.75 867.7MHz, SF12BW125, 4/5CR
- -120 -20.8 867.7MHz, SF12BW125, 4/5CR
2026-05-09 06:59:56 14.5625°C 80.75% 4.22V / 3.41V v255 No position 9791 ttn.v3 - -72 9.5 868.5MHz, SF9BW125, 4/5CR
2026-05-09 06:43:48 14.5625°C 80.75% 4.22V / 3.41V v255 No position 9790 ttn.v3 - -75 9 867.5MHz, SF9BW125, 4/5CR
2026-05-09 06:27:39 14.5625°C 80.75% 4.22V / 3.41V v255 No position 9789 ttn.v3 - -77 13 868.3MHz, SF9BW125, 4/5CR
- -114 -9 868.3MHz, SF9BW125, 4/5CR
2026-05-09 06:11:30 14.5625°C 80.75% 4.22V / 3.41V v255 No position 9788 ttn.v3 - -75 12.75 867.3MHz, SF9BW125, 4/5CR
- -120 -6.25 867.3MHz, SF9BW125, 4/5CR
- -125 -12.75 867.3MHz, SF9BW125, 4/5CR
2026-05-09 05:55:21 14.625°C 80.75% 4.22V / 3.41V v255 No position 9787 ttn.v3 - -77 12.5 868.1MHz, SF9BW125, 4/5CR
2026-05-09 05:39:12 14.625°C 80.75% 4.22V / 3.41V v255 No position 9786 ttn.v3 - -77 12.25 867.1MHz, SF9BW125, 4/5CR
- -121 -9.75 867.1MHz, SF9BW125, 4/5CR
2026-05-09 05:23:03 14.625°C 80.75% 4.22V / 3.41V v255 No position 9785 ttn.v3 - -71 9.5 868.5MHz, SF9BW125, 4/5CR
2026-05-09 05:06:54 14.625°C 80.75% 4.22V / 3.41V v255 No position 9784 ttn.v3 - -78 10.75 867.9MHz, SF9BW125, 4/5CR
- -121 -5.5 867.9MHz, SF9BW125, 4/5CR
- -120 -13 867.9MHz, SF9BW125, 4/5CR
- -120 -14.25 867.9MHz, SF9BW125, 4/5CR
2026-05-09 04:50:45 14.625°C 80.75% 4.22V / 3.41V v255 No position 9783 ttn.v3 - -77 13.5 868.3MHz, SF9BW125, 4/5CR
2026-05-09 04:34:37 14.6875°C 80.75% 4.22V / 3.41V v255 No position 9782 ttn.v3 - -77 13.25 867.7MHz, SF9BW125, 4/5CR
- -122 -8.5 867.7MHz, SF9BW125, 4/5CR
- -120 -9 867.7MHz, SF9BW125, 4/5CR
- -119 -13.75 867.7MHz, SF9BW125, 4/5CR
2026-05-09 04:18:28 14.6875°C 80.75% 4.22V / 3.41V v255 No position 9781 ttn.v3 - -79 12.75 868.1MHz, SF9BW125, 4/5CR
- -121 -7.5 868.1MHz, SF9BW125, 4/5CR
2026-05-09 04:02:19 14.6875°C 80.75% 4.22V / 3.41V v255 No position 9780 ttn.v3 - -77 9.25 867.5MHz, SF9BW125, 4/5CR
2026-05-09 03:46:10 14.6875°C 80.75% 4.22V / 3.41V v255 No position 9779 ttn.v3 - -118 -13.25 868.5MHz, SF9BW125, 4/5CR
2026-05-09 03:30:01 14.6875°C 80.75% 4.22V / 3.41V v255 No position 9778 ttn.v3 - -77 13.5 867.3MHz, SF9BW125, 4/5CR
- -118 -7.75 867.3MHz, SF9BW125, 4/5CR
2026-05-09 03:13:52 14.6875°C 80.75% 4.22V / 3.41V v255 No position 9777 ttn.v3 - -77 13 868.3MHz, SF9BW125, 4/5CR
- -113 -10.5 868.3MHz, SF9BW125, 4/5CR
2026-05-09 02:57:43 14.6875°C 80.6875% 4.22V / 3.41V v255 No position 9776 ttn.v3 - -79 12.5 867.1MHz, SF9BW125, 4/5CR
- -121 -5.25 867.1MHz, SF9BW125, 4/5CR
- -121 -11.25 867.1MHz, SF9BW125, 4/5CR
- -120 -11.25 867.1MHz, SF9BW125, 4/5CR
2026-05-09 02:41:34 14.75°C 80.75% 4.22V / 3.41V v255 No position 9775 ttn.v3 - -75 13 868.1MHz, SF9BW125, 4/5CR
- -123 -9 868.1MHz, SF9BW125, 4/5CR
2026-05-09 02:25:25 14.75°C 80.75% 4.22V / 3.41V v255 No position 9774 ttn.v3 - -83 11.75 867.9MHz, SF9BW125, 4/5CR
- -120 -8 867.9MHz, SF9BW125, 4/5CR
- -119 -10.25 867.9MHz, SF9BW125, 4/5CR
2026-05-09 02:09:17 14.75°C 80.6875% 4.22V / 3.41V v255 No position 9773 ttn.v3 - -77 9 868.5MHz, SF9BW125, 4/5CR
2026-05-09 01:53:08 14.75°C 80.75% 4.22V / 3.41V v255 No position 9772 ttn.v3 - -75 12.25 867.7MHz, SF9BW125, 4/5CR
- -121 -8 867.7MHz, SF9BW125, 4/5CR
- -120 -8.25 867.7MHz, SF9BW125, 4/5CR
- -119 -13.25 867.7MHz, SF9BW125, 4/5CR
2026-05-09 01:36:59 14.75°C 80.75% 4.22V / 3.41V v255 No position 9771 ttn.v3 - -79 12.75 868.3MHz, SF9BW125, 4/5CR
- -115 -10.25 868.3MHz, SF9BW125, 4/5CR
2026-05-09 01:20:50 14.75°C 80.6875% 4.22V / 3.41V v255 No position 9770 ttn.v3 - -75 9.25 867.5MHz, SF9BW125, 4/5CR
2026-05-09 01:04:41 14.8125°C 80.75% 4.22V / 3.41V v255 No position 9769 ttn.v3 - -79 13.5 868.1MHz, SF9BW125, 4/5CR
- -121 -10.25 868.1MHz, SF9BW125, 4/5CR
2026-05-09 00:48:32 14.75°C 80.75% 4.22V / 3.41V v255 No position 9768 ttn.v3 - -77 13.5 867.3MHz, SF9BW125, 4/5CR
- -118 -6.25 867.3MHz, SF9BW125, 4/5CR
2026-05-09 00:32:23 14.8125°C 80.6875% 4.22V / 3.41V v255 No position 9767 ttn.v3 - -75 8 868.5MHz, SF9BW125, 4/5CR
2026-05-09 00:16:14 14.8125°C 80.6875% 4.22V / 3.41V v255 No position 9766 ttn.v3 - -79 12 867.1MHz, SF9BW125, 4/5CR
- -122 -7.75 867.1MHz, SF9BW125, 4/5CR
- -121 -10.5 867.1MHz, SF9BW125, 4/5CR
2026-05-09 00:00:05 14.8125°C 80.6875% 4.22V / 3.41V v255 No position 9765 ttn.v3 - -77 12.75 868.3MHz, SF9BW125, 4/5CR
2026-05-08 23:43:56 14.8125°C 80.6875% 4.22V / 3.41V v255 No position 9764 ttn.v3 - -77 12 867.9MHz, SF9BW125, 4/5CR
- -121 -7 867.9MHz, SF9BW125, 4/5CR
- -119 -8 867.9MHz, SF9BW125, 4/5CR
- -120 -13.5 867.9MHz, SF9BW125, 4/5CR
2026-05-08 23:27:47 14.8125°C 80.6875% 4.22V / 3.41V v255 No position 9763 ttn.v3 - -79 13.75 868.1MHz, SF9BW125, 4/5CR
- -121 -8.75 868.1MHz, SF9BW125, 4/5CR
2026-05-08 23:11:38 14.8125°C 80.6875% 4.22V / 3.41V v255 No position 9762 ttn.v3 - -77 13.25 867.7MHz, SF9BW125, 4/5CR
- -119 -8.5 867.7MHz, SF9BW125, 4/5CR
- -122 -8.5 867.7MHz, SF9BW125, 4/5CR
2026-05-08 22:55:29 14.8125°C 80.625% 4.22V / 3.41V v255 No position 9761 ttn.v3 - -77 8.25 868.5MHz, SF9BW125, 4/5CR
2026-05-08 22:39:20 14.8125°C 80.625% 4.22V / 3.41V v255 No position 9760 ttn.v3 - -77 8.5 867.5MHz, SF9BW125, 4/5CR
2026-05-08 22:23:11 14.8125°C 80.5625% 4.22V / 3.41V v255 No position 9759 ttn.v3 - -73 12 868.3MHz, SF9BW125, 4/5CR
2026-05-08 22:07:02 14.875°C 80.5625% 4.22V / 3.41V v255 No position 9758 ttn.v3 - -79 13 867.3MHz, SF9BW125, 4/5CR
- -120 -6.75 867.3MHz, SF9BW125, 4/5CR
- -125 -12.25 867.3MHz, SF9BW125, 4/5CR
2026-05-08 21:50:53 14.875°C 80.5% 4.22V / 3.41V v255 No position 9757 ttn.v3 - -79 13.25 868.1MHz, SF9BW125, 4/5CR
- -121 -8.5 868.1MHz, SF9BW125, 4/5CR
2026-05-08 21:34:44 14.875°C 80.5% 4.22V / 3.41V v255 No position 9756 ttn.v3 - -78 12.75 867.1MHz, SF9BW125, 4/5CR
- -120 -10.75 867.1MHz, SF9BW125, 4/5CR
2026-05-08 21:18:35 14.875°C 80.5% 4.22V / 3.41V v255 No position 9755 ttn.v3 - -71 9.5 868.5MHz, SF9BW125, 4/5CR
2026-05-08 21:02:26 14.875°C 80.5% 4.22V / 3.41V v255 No position 9754 ttn.v3 - -79 12.5 867.9MHz, SF9BW125, 4/5CR
- -119 -12.5 867.9MHz, SF9BW125, 4/5CR
2026-05-08 20:46:17 14.875°C 80.5% 4.22V / 3.41V v255 No position 9753 ttn.v3 - -75 12.25 868.3MHz, SF9BW125, 4/5CR
2026-05-08 20:30:08 14.9375°C 80.75% 4.22V / 3.41V v255 No position 9752 ttn.v3 - -75 13.5 867.7MHz, SF9BW125, 4/5CR
- -119 -10.25 867.7MHz, SF9BW125, 4/5CR
2026-05-08 20:13:59 14.875°C 80.875% 4.22V / 3.41V v255 No position 9751 ttn.v3 - -77 13.25 868.1MHz, SF9BW125, 4/5CR
- -120 -9 868.1MHz, SF9BW125, 4/5CR
2026-05-08 19:57:50 14.875°C 80.875% 4.22V / 3.41V v255 No position 9750 ttn.v3 - -73 8.5 867.5MHz, SF9BW125, 4/5CR
2026-05-08 19:41:41 14.875°C 80.8125% 4.22V / 3.41V v255 No position 9749 ttn.v3 - -70 8.75 868.5MHz, SF9BW125, 4/5CR
2026-05-08 19:25:32 14.875°C 80.875% 4.22V / 3.41V v255 No position 9748 ttn.v3 - -77 12.5 867.3MHz, SF9BW125, 4/5CR
- -120 -6.75 867.3MHz, SF9BW125, 4/5CR
2026-05-08 19:09:23 14.875°C 80.8125% 4.22V / 3.41V v255 No position 9747 ttn.v3 - -77 14.75 868.3MHz, SF9BW125, 4/5CR
- -115 -9 868.3MHz, SF9BW125, 4/5CR
2026-05-08 18:53:15 14.875°C 80.8125% 4.22V / 3.41V v255 No position 9746 ttn.v3 - -77 11.25 867.1MHz, SF9BW125, 4/5CR
- -123 -10 867.1MHz, SF9BW125, 4/5CR
- -120 -11.75 867.1MHz, SF9BW125, 4/5CR
- -121 -12.75 867.1MHz, SF9BW125, 4/5CR
2026-05-08 18:37:06 14.875°C 80.75% 4.22V / 3.41V v255 No position 9745 ttn.v3 - -77 12.25 868.1MHz, SF9BW125, 4/5CR
- -119 -9.5 868.1MHz, SF9BW125, 4/5CR
2026-05-08 18:20:57 14.875°C 80.75% 4.22V / 3.41V v255 No position 9744 ttn.v3 - -78 12.75 867.9MHz, SF9BW125, 4/5CR
- -119 -10 867.9MHz, SF9BW125, 4/5CR
- -120 -14.25 867.9MHz, SF9BW125, 4/5CR
2026-05-08 18:04:48 14.875°C 80.6875% 4.22V / 3.41V v255 No position 9743 ttn.v3 - -72 10 868.5MHz, SF9BW125, 4/5CR
2026-05-08 17:48:39 14.875°C 80.6875% 4.22V / 3.41V v255 No position 9742 ttn.v3 - -77 13 867.7MHz, SF9BW125, 4/5CR
- -121 -8.5 867.7MHz, SF9BW125, 4/5CR
- -120 -9 867.7MHz, SF9BW125, 4/5CR
- -119 -13.25 867.7MHz, SF9BW125, 4/5CR
2026-05-08 17:32:30 14.875°C 80.5625% 4.22V / 3.41V v255 No position 9741 ttn.v3 - -77 13 868.3MHz, SF9BW125, 4/5CR
- -117 -9.75 868.3MHz, SF9BW125, 4/5CR
2026-05-08 17:16:21 14.875°C 80.5625% 4.22V / 3.41V v255 No position 9740 ttn.v3 - -77 9.25 867.5MHz, SF9BW125, 4/5CR
2026-05-08 17:00:12 14.8125°C 80.625% 4.22V / 3.41V v255 No position 9739 ttn.v3 - -79 11.75 868.1MHz, SF9BW125, 4/5CR
- -120 -10.5 868.1MHz, SF9BW125, 4/5CR
2026-05-08 16:44:03 14.8125°C 80.5625% 4.22V / 3.41V v255 No position 9738 ttn.v3 - -79 12.25 867.3MHz, SF9BW125, 4/5CR
- -120 -8.75 867.3MHz, SF9BW125, 4/5CR
2026-05-08 16:27:54 14.8125°C 80.5625% 4.22V / 3.41V v255 No position 9737 ttn.v3 - -73 8.75 868.5MHz, SF9BW125, 4/5CR
2026-05-08 16:11:45 14.8125°C 80.5% 4.22V / 3.41V v255 No position 9736 ttn.v3 - -78 12.5 867.1MHz, SF9BW125, 4/5CR
- -121 -6.5 867.1MHz, SF9BW125, 4/5CR
2026-05-08 15:55:36 14.8125°C 80.5625% 4.22V / 3.41V v255 No position 9735 ttn.v3 - -77 12.25 868.3MHz, SF9BW125, 4/5CR
- -119 -9.5 868.3MHz, SF9BW125, 4/5CR
2026-05-08 15:39:27 14.8125°C 80.4375% 4.22V / 3.41V v255 No position 9734 ttn.v3 - -77 12.5 867.9MHz, SF9BW125, 4/5CR
- -121 -6 867.9MHz, SF9BW125, 4/5CR
- -120 -7.75 867.9MHz, SF9BW125, 4/5CR
- -121 -14.25 867.9MHz, SF9BW125, 4/5CR
2026-05-08 15:23:18 14.8125°C 80.375% 4.22V / 3.41V v255 No position 9733 ttn.v3 - -79 12.75 868.1MHz, SF9BW125, 4/5CR
- -120 -10 868.1MHz, SF9BW125, 4/5CR
- -123 -12.75 868.1MHz, SF9BW125, 4/5CR
2026-05-08 15:07:09 14.75°C 80.375% 4.22V / 3.41V v255 No position 9732 ttn.v3 - -78 11 867.7MHz, SF9BW125, 4/5CR
- -120 -9.5 867.7MHz, SF9BW125, 4/5CR
2026-05-08 14:51:00 14.75°C 80.3125% 4.22V / 3.41V v255 No position 9731 ttn.v3 - -75 8.75 868.5MHz, SF9BW125, 4/5CR
2026-05-08 14:34:51 14.75°C 80.25% 4.22V / 3.41V v255 No position 9730 ttn.v3 - -73 9.5 867.5MHz, SF9BW125, 4/5CR
2026-05-08 14:18:42 14.75°C 80.25% 4.22V / 3.41V v255 No position 9729 ttn.v3 - -77 12.5 868.3MHz, SF9BW125, 4/5CR
- -115 -11.25 868.3MHz, SF9BW125, 4/5CR
2026-05-08 14:02:33 14.75°C 80.25% 4.22V / 3.41V v255 No position 9728 ttn.v3 - -78 13 867.3MHz, SF9BW125, 4/5CR
- -120 -8.25 867.3MHz, SF9BW125, 4/5CR
2026-05-08 13:46:24 14.6875°C 80.25% 4.22V / 3.41V v255 No position 9727 ttn.v3 - -79 13 868.1MHz, SF9BW125, 4/5CR
- -121 -9.5 868.1MHz, SF9BW125, 4/5CR
2026-05-08 13:30:15 14.6875°C 80.1875% 4.22V / 3.41V v255 No position 9726 ttn.v3 - -78 12 867.1MHz, SF9BW125, 4/5CR
- -120 -10.75 867.1MHz, SF9BW125, 4/5CR
2026-05-08 13:14:06 14.6875°C 80.3125% 4.22V / 3.41V v255 No position 9725 ttn.v3 - -76 9 868.5MHz, SF9BW125, 4/5CR
2026-05-08 12:57:58 14.625°C 80.4375% 4.22V / 3.41V v255 No position 9724 ttn.v3 - -79 12.75 867.9MHz, SF9BW125, 4/5CR
- -121 -7 867.9MHz, SF9BW125, 4/5CR
- -119 -9.25 867.9MHz, SF9BW125, 4/5CR
- -120 -13.75 867.9MHz, SF9BW125, 4/5CR
2026-05-08 12:41:49 14.625°C 80.375% 4.22V / 3.41V v255 No position 9723 ttn.v3 - -77 13.25 868.3MHz, SF9BW125, 4/5CR
- -117 -10.5 868.3MHz, SF9BW125, 4/5CR
2026-05-08 12:25:40 14.5625°C 80.3125% 4.22V / 3.41V v255 No position 9722 ttn.v3 - -77 13 867.7MHz, SF9BW125, 4/5CR
- -119 -9 867.7MHz, SF9BW125, 4/5CR
2026-05-08 12:09:31 14.5625°C 80.3125% 4.22V / 3.41V v255 No position 9721 ttn.v3 - -77 12.5 868.1MHz, SF9BW125, 4/5CR
- -120 -9 868.1MHz, SF9BW125, 4/5CR
2026-05-08 11:53:22 14.5625°C 80.25% 4.22V / 3.41V v255 No position 9720 ttn.v3 - -72 9 867.5MHz, SF9BW125, 4/5CR
2026-05-08 11:37:13 14.5625°C 80.1875% 4.22V / 3.41V v255 No position 9719 ttn.v3 - -75 8.5 868.5MHz, SF9BW125, 4/5CR
2026-05-08 11:21:04 14.5°C 80.1875% 4.22V / 3.41V v255 No position 9718 ttn.v3 - -72 11.75 867.3MHz, SF9BW125, 4/5CR
2026-05-08 11:04:55 14.5°C 80.125% 4.22V / 3.41V v255 No position 9717 ttn.v3 - -77 13.25 868.3MHz, SF9BW125, 4/5CR
2026-05-08 10:48:47 14.5°C 80% 4.22V / 3.41V v255 No position 9716 ttn.v3 - -83 13.75 867.1MHz, SF9BW125, 4/5CR
- -123 -11 867.1MHz, SF9BW125, 4/5CR
- -120 -12.25 867.1MHz, SF9BW125, 4/5CR
2026-05-08 10:32:38 14.5°C 80% 4.22V / 3.41V v255 No position 9715 ttn.v3 - -79 13.5 868.1MHz, SF9BW125, 4/5CR
- -121 -9.5 868.1MHz, SF9BW125, 4/5CR
2026-05-08 10:16:29 14.4375°C 80% 4.22V / 3.41V v255 No position 9714 ttn.v3 - -79 13 867.9MHz, SF9BW125, 4/5CR
- -119 -6.25 867.9MHz, SF9BW125, 4/5CR
- -123 -7 867.9MHz, SF9BW125, 4/5CR
- -118 -11.75 867.9MHz, SF9BW125, 4/5CR
2026-05-08 10:00:20 14.4375°C 79.9375% 4.22V / 3.41V v255 No position 9713 ttn.v3 - -78 9 868.5MHz, SF9BW125, 4/5CR
2026-05-08 09:44:11 14.4375°C 79.9375% 4.22V / 3.41V v255 No position 9712 ttn.v3 - -74 11.5 867.7MHz, SF9BW125, 4/5CR
- -120 -10.5 867.7MHz, SF9BW125, 4/5CR
2026-05-08 09:28:02 14.375°C 79.875% 4.22V / 3.41V v255 No position 9711 ttn.v3 - -77 13 868.3MHz, SF9BW125, 4/5CR
- -114 -12.25 868.3MHz, SF9BW125, 4/5CR
2026-05-08 09:11:53 14.375°C 79.875% 4.22V / 3.41V v255 No position 9710 ttn.v3 - -75 8.75 867.5MHz, SF9BW125, 4/5CR
2026-05-08 08:55:45 14.375°C 79.8125% 4.22V / 3.41V v255 No position 9709 ttn.v3 - -77 12.5 868.1MHz, SF9BW125, 4/5CR
- -120 -10.75 868.1MHz, SF9BW125, 4/5CR
2026-05-08 08:39:36 14.375°C 79.8125% 4.22V / 3.41V v255 No position 9708 ttn.v3 - -79 11.75 867.3MHz, SF9BW125, 4/5CR
- -120 -8.25 867.3MHz, SF9BW125, 4/5CR
2026-05-08 08:23:27 14.375°C 79.75% 4.22V / 3.41V v255 No position 9707 ttn.v3 - -79 9.25 868.5MHz, SF9BW125, 4/5CR
- -119 -13 868.5MHz, SF9BW125, 4/5CR
2026-05-08 08:07:18 14.375°C 79.75% 4.22V / 3.41V v255 No position 9706 ttn.v3 - -83 13 867.1MHz, SF9BW125, 4/5CR
- -121 -11.5 867.1MHz, SF9BW125, 4/5CR
2026-05-08 07:51:09 14.375°C 79.75% 4.22V / 3.41V v255 No position 9705 ttn.v3 - -79 12.75 868.3MHz, SF9BW125, 4/5CR
2026-05-08 07:35:01 14.375°C 79.6875% 4.22V / 3.41V v255 No position 9704 ttn.v3 - -81 13.25 867.9MHz, SF9BW125, 4/5CR
- -120 -6 867.9MHz, SF9BW125, 4/5CR
- -121 -6 867.9MHz, SF9BW125, 4/5CR
- -119 -13.5 867.9MHz, SF9BW125, 4/5CR
2026-05-08 07:18:52 14.375°C 79.625% 4.22V / 3.41V v255 No position 9703 ttn.v3 - -76 11.75 868.1MHz, SF9BW125, 4/5CR
- -119 -8.25 868.1MHz, SF9BW125, 4/5CR
- -121 -12 868.1MHz, SF9BW125, 4/5CR
2026-05-08 07:02:43 14.375°C 79.625% 4.22V / 3.41V v255 No position 9702 ttn.v3 - -120 -9 867.7MHz, SF9BW125, 4/5CR
2026-05-08 06:46:34 14.375°C 79.625% 4.22V / 3.41V v255 No position 9701 ttn.v3 - -75 10.25 868.5MHz, SF9BW125, 4/5CR
2026-05-08 06:30:25 14.375°C 79.5625% 4.22V / 3.41V v255 No position 9700 ttn.v3 - -78 8.75 867.5MHz, SF9BW125, 4/5CR
2026-05-08 06:14:17 14.375°C 79.5625% 4.22V / 3.41V v255 No position 9699 ttn.v3 - -81 11.75 868.3MHz, SF9BW125, 4/5CR
2026-05-08 05:58:08 14.4375°C 79.5% 4.22V / 3.41V v255 No position 9698 ttn.v3 - -79 12.75 868.1MHz, SF9BW125, 4/5CR
- -121 -8.5 868.1MHz, SF9BW125, 4/5CR
2026-05-08 05:41:59 14.4375°C 79.375% 4.22V / 3.41V v255 No position 9697 ttn.v3 - -77 9 868.5MHz, SF9BW125, 4/5CR
2026-05-08 05:28:01 14.4375°C 79.5625% 4.22V / 3.41V 608310488 v255 No position 9696 ttn.v3 - -76 11.75 867.3MHz, SF12BW125, 4/5CR
- -119 -6 867.3MHz, SF12BW125, 4/5CR
- -119 -17.25 867.3MHz, SF12BW125, 4/5CR
- -121 -22.5 867.3MHz, SF12BW125, 4/5CR
2026-05-08 05:09:51 14.4375°C 79.4375% 4.24V / 3.41V v255 No position 9695 ttn.v3 - -75 12.25 868.3MHz, SF9BW125, 4/5CR
2026-05-08 04:53:43 14.4375°C 79.4375% 4.24V / 3.41V v255 No position 9694 ttn.v3 - -81 12.75 867.1MHz, SF9BW125, 4/5CR
- -120 -4.75 867.1MHz, SF9BW125, 4/5CR
- -120 -9 867.1MHz, SF9BW125, 4/5CR
- -120 -11.5 867.1MHz, SF9BW125, 4/5CR
2026-05-08 04:37:34 14.4375°C 79.4375% 4.24V / 3.41V v255 No position 9693 ttn.v3 - -81 12.5 868.1MHz, SF9BW125, 4/5CR
- -120 -9 868.1MHz, SF9BW125, 4/5CR
2026-05-08 04:21:25 14.4375°C 79.375% 4.24V / 3.41V v255 No position 9692 ttn.v3 - -79 12.75 867.9MHz, SF9BW125, 4/5CR
- -121 -6.25 867.9MHz, SF9BW125, 4/5CR
2026-05-08 04:05:16 14.4375°C 79.3125% 4.24V / 3.41V v255 No position 9691 ttn.v3 - -77 9.75 868.5MHz, SF9BW125, 4/5CR
2026-05-08 03:49:07 14.4375°C 79.3125% 4.24V / 3.41V v255 No position 9690 ttn.v3 - -75 10.5 867.7MHz, SF9BW125, 4/5CR
- -121 -8 867.7MHz, SF9BW125, 4/5CR
- -122 -8 867.7MHz, SF9BW125, 4/5CR
2026-05-08 03:32:58 14.4375°C 79.25% 4.24V / 3.41V v255 No position 9689 ttn.v3 - -77 13 868.3MHz, SF9BW125, 4/5CR
2026-05-08 03:16:50 14.5°C 79.25% 4.24V / 3.41V v255 No position 9688 ttn.v3 - -79 7.75 867.5MHz, SF9BW125, 4/5CR
2026-05-08 03:00:41 14.5°C 79.1875% 4.24V / 3.41V v255 No position 9687 ttn.v3 - -81 12.75 868.1MHz, SF9BW125, 4/5CR
- -121 -9.75 868.1MHz, SF9BW125, 4/5CR
2026-05-08 02:44:32 14.5°C 79.1875% 4.24V / 3.41V v255 No position 9686 ttn.v3 - -81 12.25 867.3MHz, SF9BW125, 4/5CR
- -120 -6.75 867.3MHz, SF9BW125, 4/5CR
- -124 -9.75 867.3MHz, SF9BW125, 4/5CR
2026-05-08 02:28:23 14.5°C 79.125% 4.24V / 3.41V v255 No position 9685 ttn.v3 - -73 9.75 868.5MHz, SF9BW125, 4/5CR
2026-05-08 02:12:14 14.5°C 79.0625% 4.24V / 3.41V v255 No position 9684 ttn.v3 - -83 14 867.1MHz, SF9BW125, 4/5CR
- -122 -8.25 867.1MHz, SF9BW125, 4/5CR
- -121 -9.25 867.1MHz, SF9BW125, 4/5CR
- -121 -10.5 867.1MHz, SF9BW125, 4/5CR
2026-05-08 01:56:06 14.5°C 79.0625% 4.24V / 3.41V v255 No position 9683 ttn.v3 - -78 11.75 868.3MHz, SF9BW125, 4/5CR
2026-05-08 01:39:57 14.5°C 79% 4.24V / 3.41V v255 No position 9682 ttn.v3 - -75 12 867.9MHz, SF9BW125, 4/5CR
- -121 -6.75 867.9MHz, SF9BW125, 4/5CR
- -121 -9.25 867.9MHz, SF9BW125, 4/5CR
2026-05-08 01:23:48 14.5625°C 78.9375% 4.24V / 3.41V v255 No position 9681 ttn.v3 - -79 12.75 868.1MHz, SF9BW125, 4/5CR
- -119 -9 868.1MHz, SF9BW125, 4/5CR
2026-05-08 01:07:39 14.5°C 78.9375% 4.24V / 3.41V v255 No position 9680 ttn.v3 - -79 11.75 867.7MHz, SF9BW125, 4/5CR
- -122 -8 867.7MHz, SF9BW125, 4/5CR
- -120 -9 867.7MHz, SF9BW125, 4/5CR
2026-05-08 00:51:30 14.5625°C 78.8125% 4.24V / 3.41V v255 No position 9679 ttn.v3 - -77 8.5 868.5MHz, SF9BW125, 4/5CR
2026-05-08 00:35:21 14.5625°C 78.75% 4.24V / 3.41V v255 No position 9678 ttn.v3 - -77 9.75 867.5MHz, SF9BW125, 4/5CR
- -112 -13.5 867.5MHz, SF9BW125, 4/5CR
2026-05-08 00:19:13 14.5625°C 78.6875% 4.24V / 3.41V v255 No position 9677 ttn.v3 - -75 11.5 868.3MHz, SF9BW125, 4/5CR
2026-05-08 00:03:04 14.5625°C 78.625% 4.24V / 3.41V v255 No position 9676 ttn.v3 - -78 12.5 867.3MHz, SF9BW125, 4/5CR
- -119 -7.5 867.3MHz, SF9BW125, 4/5CR
- -126 -12.75 867.3MHz, SF9BW125, 4/5CR
2026-05-07 23:46:55 14.5625°C 78.5625% 4.24V / 3.41V v255 No position 9675 ttn.v3 - -78 12.5 868.1MHz, SF9BW125, 4/5CR
- -120 -9.25 868.1MHz, SF9BW125, 4/5CR
2026-05-07 23:30:46 14.5625°C 78.4375% 4.24V / 3.41V v255 No position 9674 ttn.v3 - -77 12.25 867.1MHz, SF9BW125, 4/5CR
- -120 -5.75 867.1MHz, SF9BW125, 4/5CR
- -121 -9.75 867.1MHz, SF9BW125, 4/5CR
- -120 -13 867.1MHz, SF9BW125, 4/5CR
2026-05-07 23:14:37 14.5625°C 78.4375% 4.24V / 3.41V v255 No position 9673 ttn.v3 - -73 9 868.5MHz, SF9BW125, 4/5CR
- -117 -11.75 868.5MHz, SF9BW125, 4/5CR
2026-05-07 22:58:28 14.5625°C 78.375% 4.24V / 3.41V v255 No position 9672 ttn.v3 - -79 13.5 867.9MHz, SF9BW125, 4/5CR
- -119 -5.5 867.9MHz, SF9BW125, 4/5CR
- -120 -6 867.9MHz, SF9BW125, 4/5CR
2026-05-07 22:42:19 14.5625°C 78.3125% 4.24V / 3.41V v255 No position 9671 ttn.v3 - -75 12.75 868.3MHz, SF9BW125, 4/5CR
2026-05-07 22:26:10 14.625°C 78.25% 4.24V / 3.41V v255 No position 9670 ttn.v3 - -75 12.25 867.7MHz, SF9BW125, 4/5CR
- -119 -8.75 867.7MHz, SF9BW125, 4/5CR
- -118 -12 867.7MHz, SF9BW125, 4/5CR
2026-05-07 22:10:02 14.5625°C 78.1875% 4.24V / 3.41V v255 No position 9669 ttn.v3 - -79 11.75 868.1MHz, SF9BW125, 4/5CR
- -121 -9.5 868.1MHz, SF9BW125, 4/5CR
- -119 -10.5 868.1MHz, SF9BW125, 4/5CR
2026-05-07 21:53:53 14.5625°C 78.125% 4.24V / 3.41V v255 No position 9668 ttn.v3 - -72 9 867.5MHz, SF9BW125, 4/5CR
2026-05-07 21:37:44 14.625°C 78.125% 4.24V / 3.41V v255 No position 9667 ttn.v3 - -75 9.75 868.5MHz, SF9BW125, 4/5CR
2026-05-07 21:21:35 14.625°C 78.0625% 4.24V / 3.41V v255 No position 9666 ttn.v3 - -73 12 867.3MHz, SF9BW125, 4/5CR
- -119 -6.5 867.3MHz, SF9BW125, 4/5CR
2026-05-07 21:05:26 14.625°C 78.0625% 4.24V / 3.41V v255 No position 9665 ttn.v3 - -75 13.25 868.3MHz, SF9BW125, 4/5CR
2026-05-07 20:49:17 14.5625°C 78.0625% 4.24V / 3.41V v255 No position 9664 ttn.v3 - -75 12.5 867.1MHz, SF9BW125, 4/5CR
- -120 -9.5 867.1MHz, SF9BW125, 4/5CR
- -121 -12 867.1MHz, SF9BW125, 4/5CR
- -121 -13.75 867.1MHz, SF9BW125, 4/5CR
2026-05-07 20:33:08 14.625°C 78.0625% 4.24V / 3.41V v255 No position 9663 ttn.v3 - -77 14 868.1MHz, SF9BW125, 4/5CR
- -120 -10.5 868.1MHz, SF9BW125, 4/5CR
2026-05-07 20:16:59 14.625°C 78.125% 4.24V / 3.41V v255 No position 9662 ttn.v3 - -83 12.75 867.9MHz, SF9BW125, 4/5CR
- -120 -7.25 867.9MHz, SF9BW125, 4/5CR
- -118 -7.75 867.9MHz, SF9BW125, 4/5CR
- -119 -12.75 867.9MHz, SF9BW125, 4/5CR
2026-05-07 20:00:50 14.625°C 78.0625% 4.24V / 3.41V v255 No position 9661 ttn.v3 - -79 8.75 868.5MHz, SF9BW125, 4/5CR
- -116 -11.75 868.5MHz, SF9BW125, 4/5CR
2026-05-07 19:44:42 14.625°C 78.0625% 4.24V / 3.41V v255 No position 9660 ttn.v3 - -79 12.25 867.7MHz, SF9BW125, 4/5CR
- -120 -6.5 867.7MHz, SF9BW125, 4/5CR
- -120 -10 867.7MHz, SF9BW125, 4/5CR
- -118 -11.5 867.7MHz, SF9BW125, 4/5CR
2026-05-07 19:28:33 14.625°C 78.0625% 4.24V / 3.41V v255 No position 9659 ttn.v3 - -75 11.5 868.3MHz, SF9BW125, 4/5CR
- -119 -7.25 868.3MHz, SF9BW125, 4/5CR
2026-05-07 19:12:24 14.625°C 78.125% 4.24V / 3.41V v255 No position 9658 ttn.v3 - -78 9 867.5MHz, SF9BW125, 4/5CR
2026-05-07 18:56:15 14.625°C 78.125% 4.24V / 3.41V v255 No position 9657 ttn.v3 - -83 12.5 868.1MHz, SF9BW125, 4/5CR
- -120 -10.25 868.1MHz, SF9BW125, 4/5CR
2026-05-07 18:40:06 14.625°C 78.125% 4.24V / 3.41V v255 No position 9656 ttn.v3 - -79 12 867.3MHz, SF9BW125, 4/5CR
- -121 -8.25 867.3MHz, SF9BW125, 4/5CR
2026-05-07 18:23:57 14.625°C 78.125% 4.24V / 3.41V v255 No position 9655 ttn.v3 - -79 9 868.5MHz, SF9BW125, 4/5CR
2026-05-07 18:07:49 14.625°C 78.0625% 4.24V / 3.41V v255 No position 9654 ttn.v3 - -81 9 867.1MHz, SF9BW125, 4/5CR
- -120 -11.75 867.1MHz, SF9BW125, 4/5CR
- -118 -12.5 867.1MHz, SF9BW125, 4/5CR
2026-05-07 17:51:40 14.625°C 78.0625% 4.24V / 3.41V v255 No position 9653 ttn.v3 - -78 12.25 868.3MHz, SF9BW125, 4/5CR
2026-05-07 17:35:31 14.625°C 78.0625% 4.24V / 3.41V v255 No position 9652 ttn.v3 - -81 12.5 867.9MHz, SF9BW125, 4/5CR
- -121 -8 867.9MHz, SF9BW125, 4/5CR
- -118 -10.75 867.9MHz, SF9BW125, 4/5CR
2026-05-07 17:19:22 14.625°C 78.125% 4.24V / 3.41V v255 No position 9651 ttn.v3 - -81 12.75 868.1MHz, SF9BW125, 4/5CR
2026-05-07 17:03:13 14.625°C 78.125% 4.24V / 3.41V v255 No position 9650 ttn.v3 - -81 12.75 867.7MHz, SF9BW125, 4/5CR
2026-05-07 16:47:04 14.625°C 78.1875% 4.24V / 3.41V v255 No position 9649 ttn.v3 - -81 9 868.5MHz, SF9BW125, 4/5CR
2026-05-07 16:30:55 14.625°C 78.1875% 4.24V / 3.41V v255 No position 9648 ttn.v3 - -79 9.25 867.5MHz, SF9BW125, 4/5CR
2026-05-07 16:14:46 14.6875°C 78.25% 4.24V / 3.41V v255 No position 9647 ttn.v3 - -79 11.75 868.3MHz, SF9BW125, 4/5CR
2026-05-07 15:58:37 14.6875°C 78.375% 4.24V / 3.41V v255 No position 9646 ttn.v3 - -81 13.25 867.3MHz, SF9BW125, 4/5CR
- -118 -8 867.3MHz, SF9BW125, 4/5CR
2026-05-07 15:42:28 14.6875°C 78.375% 4.24V / 3.41V v255 No position 9645 ttn.v3 - -79 12.25 868.1MHz, SF9BW125, 4/5CR
- -119 -9.25 868.1MHz, SF9BW125, 4/5CR
2026-05-07 15:26:19 14.625°C 78.3125% 4.24V / 3.41V v255 No position 9644 ttn.v3 - -83 13.5 867.1MHz, SF9BW125, 4/5CR
- -119 -9 867.1MHz, SF9BW125, 4/5CR
- -121 -10.25 867.1MHz, SF9BW125, 4/5CR
2026-05-07 15:10:11 14.6875°C 78.3125% 4.24V / 3.41V v255 No position 9643 ttn.v3 - -81 10 868.5MHz, SF9BW125, 4/5CR
2026-05-07 14:54:02 14.625°C 78.4375% 4.24V / 3.41V v255 No position 9642 ttn.v3 - -83 13.5 867.9MHz, SF9BW125, 4/5CR
- -118 -4.5 867.9MHz, SF9BW125, 4/5CR
- -121 -6.5 867.9MHz, SF9BW125, 4/5CR
2026-05-07 14:37:53 14.625°C 78.5625% 4.24V / 3.41V v255 No position 9641 ttn.v3 - -81 13 868.3MHz, SF9BW125, 4/5CR
- -119 -10.25 868.3MHz, SF9BW125, 4/5CR
2026-05-07 14:21:44 14.625°C 78.75% 4.24V / 3.41V v255 No position 9640 ttn.v3 - -85 13 867.7MHz, SF9BW125, 4/5CR
2026-05-07 14:05:35 14.625°C 78.9375% 4.24V / 3.41V v255 No position 9639 ttn.v3 - -81 12.5 868.1MHz, SF9BW125, 4/5CR
- -121 -10.5 868.1MHz, SF9BW125, 4/5CR
2026-05-07 13:49:26 14.625°C 78.9375% 4.24V / 3.41V v255 No position 9638 ttn.v3 - -81 9.25 867.5MHz, SF9BW125, 4/5CR
2026-05-07 13:33:17 14.625°C 78.9375% 4.24V / 3.41V v255 No position 9637 ttn.v3 - -79 9 868.5MHz, SF9BW125, 4/5CR
2026-05-07 13:17:08 14.5625°C 78.9375% 4.24V / 3.41V v255 No position 9636 ttn.v3 - -83 14.25 867.3MHz, SF9BW125, 4/5CR
- -117 -7 867.3MHz, SF9BW125, 4/5CR
2026-05-07 13:00:59 14.5°C 79.0625% 4.24V / 3.41V v255 No position 9635 ttn.v3 - -83 13 868.3MHz, SF9BW125, 4/5CR
2026-05-07 12:44:51 14.5°C 79.1875% 4.24V / 3.41V v255 No position 9634 ttn.v3 - -81 13.25 867.1MHz, SF9BW125, 4/5CR
- -125 -10.75 867.1MHz, SF9BW125, 4/5CR
- -118 -11.75 867.1MHz, SF9BW125, 4/5CR
- -121 -13 867.1MHz, SF9BW125, 4/5CR
2026-05-07 12:28:42 14.5°C 79.25% 4.24V / 3.41V v255 No position 9633 ttn.v3 - -81 13 868.1MHz, SF9BW125, 4/5CR
- -121 -9.5 868.1MHz, SF9BW125, 4/5CR
- -124 -14.25 868.1MHz, SF9BW125, 4/5CR
2026-05-07 12:12:33 14.5°C 79.375% 4.24V / 3.41V v255 No position 9632 ttn.v3 - -83 12.75 867.9MHz, SF9BW125, 4/5CR
- -120 -6.5 867.9MHz, SF9BW125, 4/5CR
- -121 -8.25 867.9MHz, SF9BW125, 4/5CR
- -117 -12.25 867.9MHz, SF9BW125, 4/5CR
2026-05-07 11:56:24 14.4375°C 79.4375% 4.24V / 3.41V v255 No position 9631 ttn.v3 - -83 9.75 868.5MHz, SF9BW125, 4/5CR
- -115 -10.25 868.5MHz, SF9BW125, 4/5CR
2026-05-07 11:40:15 14.4375°C 79.4375% 4.24V / 3.41V v255 No position 9630 ttn.v3 - -79 12.25 867.7MHz, SF9BW125, 4/5CR
- -118 -7 867.7MHz, SF9BW125, 4/5CR
- -119 -10 867.7MHz, SF9BW125, 4/5CR
2026-05-07 11:24:06 14.4375°C 79.5625% 4.24V / 3.41V v255 No position 9629 ttn.v3 - -83 12.5 868.3MHz, SF9BW125, 4/5CR
- -120 -9.5 868.3MHz, SF9BW125, 4/5CR
2026-05-07 11:07:58 14.4375°C 79.6875% 4.24V / 3.41V v255 No position 9628 ttn.v3 - -81 9.25 867.5MHz, SF9BW125, 4/5CR
2026-05-07 10:51:49 14.375°C 79.75% 4.24V / 3.41V v255 No position 9627 ttn.v3 - -77 12.25 868.1MHz, SF9BW125, 4/5CR
- -121 -8.75 868.1MHz, SF9BW125, 4/5CR
2026-05-07 10:35:40 14.375°C 79.75% 4.24V / 3.41V v255 No position 9626 ttn.v3 - -79 12.5 867.3MHz, SF9BW125, 4/5CR
- -120 -4.5 867.3MHz, SF9BW125, 4/5CR
2026-05-07 10:19:31 14.375°C 79.8125% 4.24V / 3.41V v255 No position 9625 ttn.v3 - -79 9.25 868.5MHz, SF9BW125, 4/5CR
2026-05-07 10:03:22 14.375°C 79.875% 4.24V / 3.41V v255 No position 9624 ttn.v3 - -83 13.5 867.1MHz, SF9BW125, 4/5CR
- -121 -7 867.1MHz, SF9BW125, 4/5CR
- -121 -12.5 867.1MHz, SF9BW125, 4/5CR
2026-05-07 09:47:14 14.375°C 79.9375% 4.24V / 3.41V v255 No position 9623 ttn.v3 - -78 12.25 868.3MHz, SF9BW125, 4/5CR
2026-05-07 09:31:05 14.3125°C 79.9375% 4.24V / 3.41V v255 No position 9622 ttn.v3 - -81 12.5 867.9MHz, SF9BW125, 4/5CR
- -121 -5 867.9MHz, SF9BW125, 4/5CR
- -119 -6 867.9MHz, SF9BW125, 4/5CR
2026-05-07 09:14:56 14.375°C 79.9375% 4.24V / 3.41V v255 No position 9621 ttn.v3 - -79 13 868.1MHz, SF9BW125, 4/5CR
- -121 -7.75 868.1MHz, SF9BW125, 4/5CR
2026-05-07 08:58:47 14.375°C 80% 4.24V / 3.41V v255 No position 9620 ttn.v3 - -87 11.5 867.7MHz, SF9BW125, 4/5CR
- -120 -11.5 867.7MHz, SF9BW125, 4/5CR
2026-05-07 08:42:38 14.375°C 80% 4.24V / 3.41V v255 No position 9619 ttn.v3 - -79 10 868.5MHz, SF9BW125, 4/5CR
- -117 -11.75 868.5MHz, SF9BW125, 4/5CR
2026-05-07 08:26:30 14.375°C 80% 4.24V / 3.41V v255 No position 9618 ttn.v3 - -78 9 867.5MHz, SF9BW125, 4/5CR
- -111 -11.75 867.5MHz, SF9BW125, 4/5CR
2026-05-07 08:10:21 14.375°C 80% 4.24V / 3.41V v255 No position 9617 ttn.v3 - -89 11.5 868.3MHz, SF9BW125, 4/5CR
- -109 -10.75 868.3MHz, SF9BW125, 4/5CR
2026-05-07 07:54:12 14.3125°C 80.0625% 4.24V / 3.41V v255 No position 9616 ttn.v3 - -83 13.75 867.3MHz, SF9BW125, 4/5CR
- -120 -4.5 867.3MHz, SF9BW125, 4/5CR
- -125 -10.5 867.3MHz, SF9BW125, 4/5CR
2026-05-07 07:38:03 14.25°C 80.0625% 4.24V / 3.41V v255 No position 9615 ttn.v3 - -89 12.5 868.1MHz, SF9BW125, 4/5CR
- -121 -10.25 868.1MHz, SF9BW125, 4/5CR
2026-05-07 07:21:54 14.3125°C 80.0625% 4.24V / 3.41V v255 No position 9614 ttn.v3 - -83 13.25 867.1MHz, SF9BW125, 4/5CR
- -121 -7.75 867.1MHz, SF9BW125, 4/5CR
- -121 -12 867.1MHz, SF9BW125, 4/5CR
- -126 -13 867.1MHz, SF9BW125, 4/5CR
2026-05-07 07:05:46 14.3125°C 80% 4.24V / 3.41V v255 No position 9613 ttn.v3 - -78 8.75 868.5MHz, SF9BW125, 4/5CR
2026-05-07 06:49:37 14.3125°C 80% 4.24V / 3.41V v255 No position 9612 ttn.v3 - -85 12.75 867.9MHz, SF9BW125, 4/5CR
- -121 -4.75 867.9MHz, SF9BW125, 4/5CR
- -118 -5.5 867.9MHz, SF9BW125, 4/5CR
- -120 -12.5 867.9MHz, SF9BW125, 4/5CR
2026-05-07 06:33:28 14.3125°C 80% 4.24V / 3.41V v255 No position 9611 ttn.v3 - -78 12 868.3MHz, SF9BW125, 4/5CR
- -117 -7.5 868.3MHz, SF9BW125, 4/5CR
2026-05-07 06:17:19 14.3125°C 80% 4.24V / 3.41V v255 No position 9610 ttn.v3 - -83 13.25 867.7MHz, SF9BW125, 4/5CR
- -121 -7.25 867.7MHz, SF9BW125, 4/5CR
- -121 -9 867.7MHz, SF9BW125, 4/5CR
2026-05-07 06:01:11 14.3125°C 80% 4.24V / 3.41V v255 No position 9609 ttn.v3 - -83 12.75 868.1MHz, SF9BW125, 4/5CR
- -121 -9.5 868.1MHz, SF9BW125, 4/5CR
2026-05-07 05:45:02 14.3125°C 79.9375% 4.24V / 3.41V v255 No position 9608 ttn.v3 - -81 9.75 867.5MHz, SF9BW125, 4/5CR
2026-05-07 05:28:53 14.3125°C 79.9375% 4.24V / 3.41V v255 No position 9607 ttn.v3 - -77 9.75 868.5MHz, SF9BW125, 4/5CR
2026-05-07 05:12:44 14.3125°C 79.9375% 4.24V / 3.41V v255 No position 9606 ttn.v3 - -78 11.5 867.3MHz, SF9BW125, 4/5CR
- -120 -6.25 867.3MHz, SF9BW125, 4/5CR
- -119 -13.5 867.3MHz, SF9BW125, 4/5CR
2026-05-07 04:56:36 14.3125°C 79.9375% 4.24V / 3.41V v255 No position 9605 ttn.v3 - -79 10.5 868.3MHz, SF9BW125, 4/5CR
- -114 -9.75 868.3MHz, SF9BW125, 4/5CR
2026-05-07 04:40:27 14.375°C 79.875% 4.24V / 3.41V v255 No position 9604 ttn.v3 - -81 11.75 867.1MHz, SF9BW125, 4/5CR
- -120 -6 867.1MHz, SF9BW125, 4/5CR
- -120 -7.5 867.1MHz, SF9BW125, 4/5CR
- -119 -11.5 867.1MHz, SF9BW125, 4/5CR
2026-05-07 04:24:18 14.375°C 79.875% 4.24V / 3.41V v255 No position 9603 ttn.v3 - -83 13 868.1MHz, SF9BW125, 4/5CR
- -121 -7.75 868.1MHz, SF9BW125, 4/5CR
2026-05-07 04:08:09 14.375°C 79.8125% 4.24V / 3.41V v255 No position 9602 ttn.v3 - -83 9.5 868.5MHz, SF9BW125, 4/5CR
- -119 -11.5 868.5MHz, SF9BW125, 4/5CR
2026-05-07 03:52:00 14.4375°C 79.75% 4.24V / 3.41V v255 No position 9601 ttn.v3 - -79 12.25 868.3MHz, SF9BW125, 4/5CR
2026-05-07 03:38:03 14.375°C 79.9375% 4.24V / 3.41V 608310488 v255 No position 9600 ttn.v3 - -81 10 867.9MHz, SF12BW125, 4/5CR
- -119 -3.5 867.9MHz, SF12BW125, 4/5CR
- -118 -7 867.9MHz, SF12BW125, 4/5CR
- -120 -12.75 867.9MHz, SF12BW125, 4/5CR
- -120 -21.2 867.9MHz, SF12BW125, 4/5CR
2026-05-07 03:19:53 14.375°C 79.875% 4.24V / 3.41V v255 No position 9599 ttn.v3 - -83 11.75 868.1MHz, SF9BW125, 4/5CR
- -121 -7.25 868.1MHz, SF9BW125, 4/5CR
2026-05-07 03:03:44 14.4375°C 79.875% 4.24V / 3.41V v255 No position 9598 ttn.v3 - -83 12.75 867.7MHz, SF9BW125, 4/5CR
- -119 -7.5 867.7MHz, SF9BW125, 4/5CR
- -122 -8.25 867.7MHz, SF9BW125, 4/5CR

Message count: 200
Node count: 1

Messages per node

Number of messages in list aboveNodes
200

Statistics per gateway

GatewayNumber of messagesNumber of nodesNodes
1981
1301
521
301
21
11

Filter by dataset